Airfield :
LOGIN :

Register | Disclaimer

   EN    FR    IT 

 










Legend :    VFR   Marginal VFR   IFR   Intensive IFR   Very Intensive IFR
Visi :
Ceiling :
>= 8 km
>= 3000ft
5 to 8 km
1000 to 3000 ft
1500m to 5 km
500 to 1000 ft
800 to 1500m
200 to 500 ft
< 800m
< 200 ft
Symbols :   Thunderstorms  Fog  Heavy snow  Heavy precipitations  Wind > 20 kt
SIGMETs :     Misc.  Thunderstorms  Icing  Turbulence  Mountain Waves  Volcanic Ashes






- Airport Elevation : 28 ft
- IATA code : SOZ


LFKS - Solenzara

CURRENT METAR :
  • 062130Z AUTO 29004KT 260V320 CAVOK 25/16 Q1015

EXPIRED METARs :
  • 062100Z AUTO 28005KT 240V310 CAVOK 25/16 Q1015
  • 062030Z AUTO 28005KT 240V320 CAVOK 25/17 Q1015
  • 062000Z AUTO 27004KT CAVOK 26/17 Q1014
  • 061930Z AUTO VRB03KT CAVOK 26/17 Q1014
  • 061900Z AUTO VRB02KT CAVOK 27/20 Q1014

TAF TAF LFKS
Valid from the 06 at 21:00 until the 07 at 21:00 UTC


062000Z 0621/0721 27005KT CAVOK
BECMG 0707/0709 14010KT
BECMG 0718/0720 27005KT



MET'MAP, your aeronautical weather chart ! - Copyright ORBIFLY December 2007 - Disclaimer

ORBIFLY MET'MAP TEAM :

Programming & Development : Alexandra Zaïnal
Original concept : Baudouin d'Aumeries
Technical & hardware support : Manuel Goepfert
Assistance : Marc-Olivier Méhu




SOURCES & CREDITS :

   NOAA